KMKE

General Mitchell International Airport

ICAO Code KMKE
IATA Code MKE
Name General Mitchell International Airport
Location Milwaukee, Wisconsin, US
Elevation 723 Feet / 220.4 Meters
Latitude 42.94720078
Longitude -87.89659882
METAR KMKE 122052Z 29022G39KT 9SM -RA FEW042 BKN055 OVC085 12/04 A2982 RMK AO2 PK WND 28039/2004 LTG DSNT S RAB09E18B45 PRESRR SLP100 P0000 60001 T01220044 53033
Extra information Display Charts
Runway Length Width Surface Elevation
01L 9690 ft 200 ft PEM 704 ft
01R 4183 ft 150 ft ASP 677 ft
07L 4800 ft 100 ft ASP 672 ft
07R 8012 ft 150 ft PEM 723 ft
13 5868 ft 150 ft ASP 670 ft
19R 9690 ft 200 ft PEM 671 ft
19L 4183 ft 150 ft ASP 670 ft
25R 4800 ft 100 ft ASP 674 ft
25L 8012 ft 150 ft PEM 670 ft
31 5868 ft 150 ft ASP 669 ft